Time;durP1;ratioP1;P1;durP2;ratioP2;P2;SDS_P1;SDS_P2;PMS_P1;PMS_P2;Temp;Humidity;BMP_temperature;BMP_pressure;BME280_temperature;BME280_humidity;BME280_pressure;Samples;Min_cycle;Max_cycle;Signal;HPM_P1;HPM_P2
2021/04/30 00:00:36;;;;;;;2.13;1.60;;;;;;;5.78;47.23;100034.22;5063546;28;20017;-67
2021/04/30 00:03:03;;;;;;;4.35;2.03;;;;;;;5.78;47.46;100037.63;5063051;28;20525;-67
2021/04/30 00:05:29;;;;;;;3.00;2.10;;;;;;;5.72;47.52;100031.59;5063366;28;20025;-66
2021/04/30 00:07:55;;;;;;;5.05;1.98;;;;;;;5.78;47.51;100047.09;5063495;28;20059;-66
2021/04/30 00:10:21;;;;;;;3.20;1.98;;;;;;;5.68;47.79;100041.03;5063611;28;20021;-67
2021/04/30 00:12:47;;;;;;;4.25;2.20;;;;;;;5.69;47.78;100047.88;5063277;28;20033;-66
2021/04/30 00:15:13;;;;;;;2.25;1.50;;;;;;;5.54;47.87;100049.50;5063144;28;20159;-66
2021/04/30 00:17:38;;;;;;;3.13;2.22;;;;;;;5.52;48.05;100053.81;5063161;28;20413;-66
2021/04/30 00:20:04;;;;;;;5.88;2.50;;;;;;;5.53;48.16;100052.06;5063035;28;20461;-66
2021/04/30 00:22:29;;;;;;;5.18;2.17;;;;;;;5.48;48.29;100056.34;5063389;28;20044;-65
2021/04/30 00:24:55;;;;;;;4.22;1.98;;;;;;;5.43;48.25;100049.44;5063262;28;20060;-65
2021/04/30 00:27:21;;;;;;;7.00;2.03;;;;;;;5.36;48.14;100041.66;5063265;28;20025;-65
2021/04/30 00:29:46;;;;;;;2.58;1.98;;;;;;;5.32;48.33;100038.19;5062511;28;20033;-65
2021/04/30 00:32:12;;;;;;;3.03;1.92;;;;;;;5.29;48.16;100049.34;5062928;28;20052;-66
2021/04/30 00:34:40;;;;;;;2.47;1.70;;;;;;;5.27;48.10;100043.31;5063105;28;20028;-66
2021/04/30 00:37:05;;;;;;;2.45;1.65;;;;;;;5.15;48.13;100038.09;5063177;28;20089;-66
2021/04/30 00:39:31;;;;;;;4.05;2.67;;;;;;;5.11;48.33;100049.22;5063088;28;20025;-66
2021/04/30 00:41:56;;;;;;;3.53;1.67;;;;;;;5.04;48.58;100044.03;5062935;28;20052;-66
2021/04/30 00:44:22;;;;;;;3.00;1.92;;;;;;;4.99;48.70;100050.81;5062918;28;20040;-66
2021/04/30 00:46:48;;;;;;;2.05;1.63;;;;;;;4.89;48.65;100052.44;5062959;28;20060;-67
2021/04/30 00:49:13;;;;;;;2.63;1.83;;;;;;;4.85;48.79;100045.56;5062993;28;20017;-66
2021/04/30 00:51:38;;;;;;;2.80;1.95;;;;;;;4.86;48.78;100059.28;5063160;28;20027;-66
2021/04/30 00:54:04;;;;;;;2.92;1.80;;;;;;;4.84;48.82;100054.09;5063014;28;20114;-66
2021/04/30 00:56:29;;;;;;;3.75;2.22;;;;;;;4.80;48.94;100053.25;5062918;28;20102;-66
2021/04/30 00:58:55;;;;;;;4.20;1.90;;;;;;;4.71;48.96;100051.41;5063129;28;20055;-67
2021/04/30 01:01:20;;;;;;;3.38;2.30;;;;;;;4.70;49.01;100048.84;5061945;28;20503;-68
2021/04/30 01:03:47;;;;;;;2.58;1.55;;;;;;;4.68;49.06;100051.38;5062706;28;20032;-67
2021/04/30 01:06:15;;;;;;;3.05;1.70;;;;;;;4.64;49.42;100057.38;5063079;28;20152;-67
2021/04/30 01:08:41;;;;;;;2.38;1.40;;;;;;;4.63;49.24;100058.22;5063205;28;20025;-67
2021/04/30 01:11:06;;;;;;;4.43;1.85;;;;;;;4.59;49.35;100061.59;5062842;28;20095;-67
2021/04/30 01:13:33;;;;;;;2.92;1.58;;;;;;;4.56;49.21;100065.00;5062945;28;20598;-67
2021/04/30 01:15:58;;;;;;;2.10;1.55;;;;;;;4.49;49.61;100064.91;5062731;28;20076;-67
2021/04/30 01:18:23;;;;;;;3.05;1.80;;;;;;;4.53;49.65;100069.25;5062607;28;20053;-66
2021/04/30 01:20:50;;;;;;;3.50;1.15;;;;;;;4.48;49.74;100076.91;5062822;28;20092;-67
2021/04/30 01:23:15;;;;;;;3.55;1.92;;;;;;;4.44;49.78;100072.56;5062849;28;20045;-67
2021/04/30 01:25:41;;;;;;;2.17;1.45;;;;;;;4.42;50.05;100080.28;5062752;28;20021;-67
2021/04/30 01:28:07;;;;;;;1.95;1.30;;;;;;;4.37;49.72;100081.03;5062896;28;20024;-67
2021/04/30 01:30:35;;;;;;;2.78;1.63;;;;;;;4.36;49.87;100080.19;5062765;28;20031;-67
2021/04/30 01:33:01;;;;;;;2.25;1.60;;;;;;;4.33;49.79;100082.72;5062549;28;20052;-67
2021/04/30 01:35:29;;;;;;;2.47;1.52;;;;;;;4.25;50.05;100077.47;5062754;28;20025;-67
2021/04/30 01:37:56;;;;;;;2.53;1.85;;;;;;;4.25;49.98;100080.06;5061538;28;20021;-67
2021/04/30 01:40:32;;;;;;;3.58;1.80;;;;;;;4.20;50.04;100094.56;5063302;28;20048;-67
2021/04/30 01:43:06;;;;;;;3.13;1.35;;;;;;;4.24;49.88;100087.75;5066208;28;20048;-67
2021/04/30 01:45:39;;;;;;;3.08;1.70;;;;;;;4.18;49.91;100084.28;5066376;28;20056;-67
2021/04/30 01:48:10;;;;;;;3.83;1.98;;;;;;;4.14;50.03;100089.34;5065933;28;20036;-68
2021/04/30 01:50:36;;;;;;;2.53;1.58;;;;;;;4.11;50.04;100097.88;5066285;28;20028;-67
2021/04/30 01:53:02;;;;;;;3.40;2.22;;;;;;;4.10;50.08;100093.59;5066189;28;20052;-68
2021/04/30 01:55:29;;;;;;;2.75;1.90;;;;;;;4.07;50.24;100099.53;5064507;28;20045;-67
2021/04/30 01:57:55;;;;;;;3.20;1.80;;;;;;;4.12;50.04;100091.03;5066072;28;20039;-67
2021/04/30 02:00:27;;;;;;;4.28;1.65;;;;;;;4.13;50.01;100100.44;5065828;28;20095;-67
2021/04/30 02:02:55;;;;;;;4.22;1.60;;;;;;;4.05;50.22;100103.81;5065582;28;20039;-67
2021/04/30 02:05:22;;;;;;;4.03;1.63;;;;;;;4.02;50.43;100100.31;5065753;28;20021;-66
2021/04/30 02:07:48;;;;;;;2.10;1.33;;;;;;;4.01;50.30;100106.31;5065744;28;20074;-67
2021/04/30 02:10:22;;;;;;;2.28;1.65;;;;;;;4.01;50.41;100103.75;5064401;28;20104;-68
2021/04/30 02:12:49;;;;;;;2.53;1.70;;;;;;;4.00;50.23;100108.00;5065934;28;20475;-67
2021/04/30 02:15:16;;;;;;;6.00;1.45;;;;;;;4.00;50.47;100107.13;5064285;28;20151;-67
2021/04/30 02:17:41;;;;;;;2.45;1.60;;;;;;;3.99;50.40;100108.84;5065253;28;20072;-67
2021/04/30 02:20:08;;;;;;;4.38;1.88;;;;;;;3.96;50.54;100111.38;5065666;28;20021;-67
2021/04/30 02:22:35;;;;;;;2.55;2.00;;;;;;;3.93;50.91;100117.31;5065379;28;20513;-67
2021/04/30 02:25:02;;;;;;;5.63;2.10;;;;;;;3.86;50.87;100109.50;5065180;28;20029;-68
2021/04/30 02:27:27;;;;;;;1.95;1.42;;;;;;;3.86;50.93;100118.09;5065609;28;20032;-67
2021/04/30 02:29:53;;;;;;;3.72;2.05;;;;;;;3.82;50.88;100118.88;5065288;28;20025;-67
2021/04/30 02:32:18;;;;;;;3.03;2.00;;;;;;;3.78;50.95;100117.09;5064814;28;20067;-66
2021/04/30 02:34:44;;;;;;;2.88;1.77;;;;;;;3.75;51.06;100122.19;5065185;28;20021;-67
2021/04/30 02:37:09;;;;;;;3.00;1.67;;;;;;;3.74;51.00;100126.47;5065266;28;20368;-67
2021/04/30 02:39:34;;;;;;;3.67;1.88;;;;;;;3.70;51.26;100120.44;5065195;28;20142;-71
2021/04/30 02:42:00;;;;;;;4.68;2.33;;;;;;;3.66;51.11;100121.22;5065170;28;20198;-67
2021/04/30 02:44:25;;;;;;;3.45;2.08;;;;;;;3.65;51.10;100127.19;5063753;28;20025;-67
2021/04/30 02:46:51;;;;;;;3.75;2.08;;;;;;;3.59;51.23;100117.69;5065166;28;20025;-67
2021/04/30 02:49:24;;;;;;;2.47;1.92;;;;;;;3.59;51.41;100127.09;5064841;28;20363;-66
2021/04/30 02:51:49;;;;;;;3.85;1.60;;;;;;;3.55;51.61;100123.63;5064469;28;20034;-67
2021/04/30 02:54:14;;;;;;;4.82;2.03;;;;;;;3.50;51.45;100132.94;5064688;28;20052;-67
2021/04/30 02:56:40;;;;;;;4.43;1.85;;;;;;;3.49;51.59;100133.78;5064629;28;20553;-67
2021/04/30 02:59:06;;;;;;;3.67;1.85;;;;;;;3.48;51.78;100132.06;5064971;28;20051;-66
2021/04/30 03:01:31;;;;;;;4.03;2.05;;;;;;;3.42;51.95;100131.97;5064693;28;20086;-66
2021/04/30 03:03:56;;;;;;;3.90;1.73;;;;;;;3.41;51.65;100137.91;5064245;28;20025;-66
2021/04/30 03:06:23;;;;;;;2.40;1.65;;;;;;;3.39;51.96;100137.91;5064554;28;20453;-68
2021/04/30 03:08:52;;;;;;;4.03;2.28;;;;;;;3.34;51.90;100139.50;5064672;28;20032;-67
2021/04/30 03:11:18;;;;;;;2.03;1.70;;;;;;;3.32;52.35;100144.63;5064587;28;20021;-67
2021/04/30 03:13:44;;;;;;;2.60;1.80;;;;;;;3.29;52.11;100146.28;5064488;28;20021;-67
2021/04/30 03:16:09;;;;;;;2.05;1.70;;;;;;;3.22;52.01;100140.19;5064402;28;20060;-67
2021/04/30 03:18:34;;;;;;;10.45;1.90;;;;;;;3.27;52.06;100147.97;5064183;28;20024;-67
2021/04/30 03:21:00;;;;;;;2.90;1.75;;;;;;;3.24;51.99;100164.16;5064309;28;20017;-67
2021/04/30 03:23:25;;;;;;;3.10;1.80;;;;;;;3.19;51.88;100148.69;5064446;28;20029;-67
2021/04/30 03:25:50;;;;;;;3.75;1.83;;;;;;;3.22;51.93;100158.13;5063996;28;20020;-67
2021/04/30 03:28:16;;;;;;;5.07;1.80;;;;;;;3.16;52.03;100156.34;5064308;28;20042;-67
2021/04/30 03:30:41;;;;;;;5.80;1.70;;;;;;;3.17;52.30;100164.88;5064054;28;20080;-67
2021/04/30 03:33:06;;;;;;;3.22;1.92;;;;;;;3.16;52.16;100163.16;5063731;28;20115;-67
2021/04/30 03:35:32;;;;;;;2.53;1.90;;;;;;;3.15;52.17;100159.72;5062850;28;20438;-66
2021/04/30 03:37:57;;;;;;;3.88;2.20;;;;;;;3.20;52.15;100163.25;5064211;28;20021;-67
2021/04/30 03:40:22;;;;;;;2.78;1.77;;;;;;;3.26;52.12;100151.38;5064123;28;20023;-68
2021/04/30 03:42:48;;;;;;;3.55;1.70;;;;;;;3.43;52.07;100167.94;5063969;28;20493;-66
2021/04/30 03:45:13;;;;;;;3.50;1.30;;;;;;;3.61;51.65;100168.19;5063804;28;20032;-67
2021/04/30 03:47:39;;;;;;;2.45;1.40;;;;;;;3.77;51.00;100174.44;5063632;28;20036;-68
2021/04/30 03:50:05;;;;;;;4.00;1.60;;;;;;;3.82;50.95;100167.66;5062689;28;20441;-67
2021/04/30 03:52:30;;;;;;;6.13;2.40;;;;;;;4.01;50.63;100173.94;5063662;28;20029;-67
2021/04/30 03:54:55;;;;;;;3.83;2.70;;;;;;;4.13;50.09;100174.97;5063591;28;20047;-67
2021/04/30 03:57:21;;;;;;;4.28;1.85;;;;;;;4.27;49.92;100178.59;5063696;28;20041;-67
2021/04/30 03:59:46;;;;;;;2.10;1.40;;;;;;;4.51;49.83;100177.19;5063786;28;20036;-67
2021/04/30 04:02:11;;;;;;;3.15;1.58;;;;;;;4.80;49.98;100183.53;5063375;28;20043;-67
2021/04/30 04:04:37;;;;;;;2.75;1.70;;;;;;;5.15;48.88;100189.91;5063337;28;20025;-67
2021/04/30 04:07:02;;;;;;;1.88;1.33;;;;;;;5.32;48.39;100190.94;5063273;28;20025;-67
2021/04/30 04:09:27;;;;;;;2.30;1.52;;;;;;;5.17;47.39;100186.53;5063585;28;20052;-67
2021/04/30 04:11:53;;;;;;;5.38;1.90;;;;;;;4.94;47.57;100187.13;5063379;28;20082;-67
2021/04/30 04:14:18;;;;;;;2.17;1.30;;;;;;;4.90;47.96;100187.97;5063628;28;20064;-68
2021/04/30 04:16:43;;;;;;;2.13;1.40;;;;;;;5.07;48.17;100195.00;5063421;28;20032;-68
2021/04/30 04:19:09;;;;;;;6.00;2.00;;;;;;;5.22;47.50;100207.16;5063180;28;20032;-67
2021/04/30 04:21:34;;;;;;;2.15;1.50;;;;;;;5.31;47.02;100198.66;5063391;28;20025;-68
2021/04/30 04:24:00;;;;;;;2.13;1.50;;;;;;;5.52;47.53;100199.72;5063283;28;20051;-66
2021/04/30 04:26:25;;;;;;;3.53;1.65;;;;;;;6.05;46.51;100200.19;5063581;28;20063;-66
2021/04/30 04:28:51;;;;;;;3.50;1.65;;;;;;;6.19;45.84;100195.09;5063369;28;20118;-66
2021/04/30 04:31:16;;;;;;;6.32;1.65;;;;;;;6.28;45.05;100196.84;5061698;28;20052;-66
2021/04/30 04:33:41;;;;;;;4.07;1.67;;;;;;;6.53;45.21;100208.16;5063099;28;20052;-66
2021/04/30 04:36:07;;;;;;;2.78;1.58;;;;;;;6.94;45.43;100201.47;5063226;28;20021;-67
2021/04/30 04:38:33;;;;;;;4.70;1.60;;;;;;;7.45;43.93;100210.19;5063420;28;20028;-66
2021/04/30 04:40:58;;;;;;;2.53;1.52;;;;;;;7.78;42.52;100212.81;5063204;28;20031;-65
2021/04/30 04:43:24;;;;;;;4.13;1.77;;;;;;;8.00;42.50;100207.63;5063288;28;20108;-66
2021/04/30 04:45:51;;;;;;;4.85;1.63;;;;;;;8.27;41.52;100211.03;5061610;28;20312;-66
2021/04/30 04:48:16;;;;;;;2.08;1.40;;;;;;;8.54;41.82;100207.56;5062939;28;20036;-66
2021/04/30 04:50:43;;;;;;;1.83;1.50;;;;;;;8.65;40.09;100199.75;5063325;28;20032;-66
2021/04/30 04:53:08;;;;;;;3.45;1.85;;;;;;;8.93;40.83;100202.19;5063490;28;20031;-67
2021/04/30 04:55:33;;;;;;;3.10;1.50;;;;;;;9.09;39.50;100211.63;5063068;28;20072;-67
2021/04/30 04:57:59;;;;;;;3.60;2.20;;;;;;;9.27;39.59;100215.81;5063029;28;20029;-67
2021/04/30 05:00:24;;;;;;;4.10;1.50;;;;;;;9.53;38.58;100204.44;5062865;28;20596;-67
2021/04/30 05:02:49;;;;;;;6.35;1.65;;;;;;;9.61;37.99;100209.56;5062803;28;20094;-66
2021/04/30 05:05:15;;;;;;;2.78;1.60;;;;;;;9.45;37.24;100220.03;5062943;28;20097;-67
2021/04/30 05:07:40;;;;;;;3.13;1.50;;;;;;;9.24;37.90;100221.03;5062989;28;20442;-67
2021/04/30 05:10:06;;;;;;;3.67;1.60;;;;;;;9.36;37.95;100220.94;5062861;28;20021;-66
2021/04/30 05:12:32;;;;;;;3.08;1.73;;;;;;;9.71;38.00;100225.91;5062802;28;20029;-65
2021/04/30 05:14:57;;;;;;;3.30;1.63;;;;;;;10.04;37.60;100223.91;5062176;28;20097;-65
2021/04/30 05:17:22;;;;;;;3.40;1.50;;;;;;;10.31;37.19;100231.41;5066522;28;20350;-65
2021/04/30 05:19:48;;;;;;;4.65;1.45;;;;;;;10.46;36.01;100230.41;5066933;28;20027;-64
2021/04/30 05:22:14;;;;;;;6.43;1.63;;;;;;;10.28;35.43;100238.38;5066400;28;20036;-64
2021/04/30 05:24:44;;;;;;;2.75;1.70;;;;;;;10.16;35.97;100226.38;5066649;28;20044;-65
2021/04/30 05:27:10;;;;;;;3.83;1.45;;;;;;;10.15;35.68;100232.44;5066892;28;20017;-72
2021/04/30 05:29:45;;;;;;;3.20;1.20;;;;;;;10.19;36.25;100242.78;5065229;28;20025;-67
2021/04/30 05:32:12;;;;;;;5.28;1.50;;;;;;;10.31;36.18;100232.28;5065054;28;20048;-66
2021/04/30 05:34:38;;;;;;;6.20;1.92;;;;;;;10.30;35.31;100233.19;5065830;28;20456;-66
2021/04/30 05:37:04;;;;;;;2.88;1.48;;;;;;;10.15;35.22;100237.63;5066008;28;20016;-64
2021/04/30 05:39:30;;;;;;;1.50;1.10;;;;;;;9.90;34.85;100253.41;5066065;28;20131;-65
2021/04/30 05:41:56;;;;;;;2.60;1.42;;;;;;;9.78;35.13;100248.31;5066287;28;20044;-64
2021/04/30 05:44:21;;;;;;;3.38;1.33;;;;;;;9.76;35.44;100253.50;5066120;28;20056;-66
2021/04/30 05:46:47;;;;;;;4.35;2.20;;;;;;;9.54;35.32;100253.66;5066182;28;20024;-66
2021/04/30 05:49:12;;;;;;;5.45;1.77;;;;;;;9.55;36.18;100257.97;5066039;28;20017;-67
2021/04/30 05:51:37;;;;;;;5.78;2.28;;;;;;;9.86;35.45;100259.50;5066068;28;20017;-66
2021/04/30 05:54:03;;;;;;;3.83;1.95;;;;;;;10.19;35.85;100264.41;5066008;28;20081;-67
2021/04/30 05:56:29;;;;;;;2.58;0.95;;;;;;;10.63;34.79;100251.88;5065783;28;20490;-65
2021/04/30 05:58:55;;;;;;;2.60;1.70;;;;;;;10.85;33.38;100264.63;5066082;28;20033;-66
2021/04/30 06:01:21;;;;;;;1.98;1.15;;;;;;;10.58;33.18;100258.84;5066073;28;20031;-63
2021/04/30 06:03:47;;;;;;;2.63;1.30;;;;;;;10.19;33.86;100256.63;5065294;28;20481;-63
2021/04/30 06:06:12;;;;;;;7.32;1.38;;;;;;;10.25;33.94;100268.69;5065300;28;20021;-63
2021/04/30 06:08:37;;;;;;;2.40;1.30;;;;;;;10.15;33.42;100270.50;5065259;28;20119;-63
2021/04/30 06:11:03;;;;;;;2.72;1.30;;;;;;;9.99;33.76;100267.16;5065704;28;20024;-62
2021/04/30 06:13:29;;;;;;;2.55;1.42;;;;;;;10.23;34.38;100266.09;5065689;28;20028;-64
2021/04/30 06:15:55;;;;;;;2.22;1.20;;;;;;;10.63;33.43;100270.06;5065432;28;20078;-64
2021/04/30 06:18:20;;;;;;;1.70;1.00;;;;;;;10.90;33.25;100256.78;5065304;28;20092;-63
2021/04/30 06:20:46;;;;;;;2.83;1.48;;;;;;;11.05;33.07;100273.91;5065427;28;20017;-64
2021/04/30 06:23:11;;;;;;;1.75;1.10;;;;;;;11.42;33.10;100274.28;5065348;28;20055;-66
2021/04/30 06:25:36;;;;;;;5.28;1.10;;;;;;;11.52;31.47;100265.47;5065179;28;20029;-64
2021/04/30 06:28:02;;;;;;;3.45;1.15;;;;;;;11.71;32.07;100270.41;5064356;28;20100;-64
2021/04/30 06:30:27;;;;;;;2.13;1.50;;;;;;;12.14;30.78;100274.94;5065272;28;20048;-64
2021/04/30 06:32:53;;;;;;;2.35;1.45;;;;;;;12.31;30.52;100278.13;5064997;28;20098;-64
2021/04/30 06:35:18;;;;;;;2.90;1.40;;;;;;;12.38;30.45;100283.19;5065379;28;20029;-64
2021/04/30 06:37:43;;;;;;;2.40;1.20;;;;;;;12.63;29.10;100276.69;5065239;28;20055;-65
2021/04/30 06:40:09;;;;;;;2.00;1.00;;;;;;;12.62;29.40;100282.81;5065194;28;20283;-64
2021/04/30 06:42:35;;;;;;;2.78;0.95;;;;;;;12.35;28.23;100285.84;5064990;28;20033;-65
2021/04/30 06:45:01;;;;;;;2.55;0.75;;;;;;;11.88;28.98;100284.03;5065040;28;20025;-64
2021/04/30 06:47:26;;;;;;;1.52;0.90;;;;;;;11.50;29.07;100293.25;5064684;28;20013;-65
2021/04/30 06:49:52;;;;;;;2.60;1.20;;;;;;;11.13;29.49;100294.59;5064925;28;20016;-64
2021/04/30 06:52:17;;;;;;;1.83;0.93;;;;;;;11.09;29.82;100293.78;5064874;28;20029;-64
2021/04/30 06:54:43;;;;;;;4.70;2.17;;;;;;;11.35;30.47;100294.31;5064803;28;20021;-65
2021/04/30 06:57:08;;;;;;;2.20;1.17;;;;;;;11.81;29.98;100300.59;5063253;28;20062;-64
2021/04/30 06:59:34;;;;;;;2.55;0.80;;;;;;;12.02;28.69;100306.34;5064773;28;20029;-64
2021/04/30 07:01:59;;;;;;;2.88;1.05;;;;;;;11.85;28.77;100293.59;5064391;28;20033;-63
2021/04/30 07:04:24;;;;;;;1.80;1.10;;;;;;;11.85;28.69;100299.66;5064292;28;20123;-64
2021/04/30 07:06:50;;;;;;;2.22;1.10;;;;;;;11.92;28.60;100307.38;5064549;28;20048;-64
2021/04/30 07:09:15;;;;;;;3.75;1.38;;;;;;;11.79;28.67;100297.16;5064905;28;20035;-64
2021/04/30 07:11:40;;;;;;;5.65;1.17;;;;;;;12.00;29.14;100300.28;5064689;28;20024;-64
2021/04/30 07:14:06;;;;;;;2.13;1.20;;;;;;;12.56;28.93;100304.59;5064637;28;20021;-64
2021/04/30 07:16:32;;;;;;;3.53;1.17;;;;;;;13.09;28.05;100295.75;5064339;28;20110;-63
2021/04/30 07:18:57;;;;;;;2.35;1.27;;;;;;;13.44;26.81;100295.03;5064277;28;20512;-63
2021/04/30 07:21:24;;;;;;;2.00;1.00;;;;;;;13.31;27.09;100295.28;5064351;28;20071;-62
2021/04/30 07:23:49;;;;;;;2.55;0.95;;;;;;;13.14;26.36;100313.91;5064525;28;20052;-65
2021/04/30 07:26:15;;;;;;;1.88;0.98;;;;;;;12.82;26.08;100302.38;5064288;28;20028;-63
2021/04/30 07:28:40;;;;;;;3.15;0.90;;;;;;;12.38;27.33;100313.59;5064383;28;20100;-64
2021/04/30 07:31:06;;;;;;;1.90;0.90;;;;;;;12.39;27.39;100297.97;5064357;28;20033;-64
2021/04/30 07:33:31;;;;;;;3.17;0.93;;;;;;;12.54;26.95;100308.94;5063918;28;20097;-64
2021/04/30 07:35:56;;;;;;;4.57;2.15;;;;;;;12.48;26.90;100309.94;5064172;28;20027;-64
2021/04/30 07:38:23;;;;;;;2.38;0.95;;;;;;;12.49;26.93;100319.47;5063977;28;20052;-64
2021/04/30 07:40:49;;;;;;;1.30;0.98;;;;;;;12.46;27.08;100309.09;5064080;28;20020;-64
2021/04/30 07:43:16;;;;;;;2.42;1.02;;;;;;;12.57;26.93;100310.66;5064172;28;20024;-64
2021/04/30 07:45:43;;;;;;;2.42;1.20;;;;;;;12.59;26.94;100312.34;5063632;28;20032;-63
2021/04/30 07:48:09;;;;;;;2.92;1.23;;;;;;;12.66;26.56;100307.88;5063643;28;20028;-63
2021/04/30 07:50:35;;;;;;;2.58;1.05;;;;;;;12.75;26.66;100328.53;5063912;28;20104;-62
2021/04/30 07:53:01;;;;;;;1.20;0.80;;;;;;;12.76;26.44;100309.41;5064009;28;20312;-61
2021/04/30 07:55:27;;;;;;;4.60;1.20;;;;;;;12.96;26.50;100308.19;5063484;28;20493;-63
2021/04/30 07:57:52;;;;;;;2.03;0.90;;;;;;;13.30;25.65;100335.31;5063706;28;20029;-63
2021/04/30 08:00:18;;;;;;;1.63;1.20;;;;;;;12.95;25.76;100318.63;5063519;28;20017;-64
2021/04/30 08:02:44;;;;;;;2.97;0.98;;;;;;;12.79;26.03;100320.66;5063318;28;20115;-63
2021/04/30 08:05:10;;;;;;;2.45;0.95;;;;;;;12.71;26.44;100320.81;5063707;28;20056;-64
2021/04/30 08:07:36;;;;;;;3.35;1.33;;;;;;;12.84;26.07;100327.50;5063884;28;20264;-64
2021/04/30 08:10:03;;;;;;;3.63;1.20;;;;;;;13.01;26.66;100324.59;5063692;28;20032;-64
2021/04/30 08:12:29;;;;;;;3.00;1.10;;;;;;;13.70;26.37;100322.31;5063399;28;20025;-64
2021/04/30 08:14:54;;;;;;;3.10;1.23;;;;;;;14.15;25.31;100336.06;5062004;28;20028;-64
2021/04/30 08:17:19;;;;;;;2.10;0.90;;;;;;;14.10;25.05;100329.22;5063557;28;20031;-64
2021/04/30 08:19:45;;;;;;;1.55;0.90;;;;;;;13.92;25.06;100332.22;5063000;28;20025;-64
2021/04/30 08:22:10;;;;;;;1.90;1.27;;;;;;;13.90;25.31;100318.38;5063532;28;20025;-64
2021/04/30 08:24:35;;;;;;;3.55;1.10;;;;;;;14.04;24.75;100331.94;5061769;28;20044;-64
2021/04/30 08:27:01;;;;;;;1.45;1.02;;;;;;;13.98;24.81;100325.13;5062088;28;20024;-64
2021/04/30 08:29:26;;;;;;;2.55;1.10;;;;;;;13.94;25.05;100330.47;5063311;28;20017;-63
2021/04/30 08:31:52;;;;;;;3.05;1.00;;;;;;;14.57;25.02;100329.78;5063250;28;20032;-64
2021/04/30 08:34:17;;;;;;;2.10;1.00;;;;;;;15.16;24.15;100322.97;5063101;28;20024;-65
2021/04/30 08:36:42;;;;;;;1.55;1.00;;;;;;;15.29;23.39;100333.91;5061868;28;20056;-62
2021/04/30 08:39:09;;;;;;;1.80;1.05;;;;;;;15.37;23.16;100331.06;5063368;28;20070;-66
2021/04/30 08:41:36;;;;;;;1.63;0.75;;;;;;;15.35;23.16;100336.34;5063406;28;20028;-64
2021/04/30 08:44:05;;;;;;;5.25;0.90;;;;;;;15.15;22.73;100341.31;5063490;28;20025;-64
2021/04/30 08:46:31;;;;;;;3.15;1.35;;;;;;;14.65;22.92;100343.50;5063210;28;20088;-64
2021/04/30 08:49:05;;;;;;;2.70;0.95;;;;;;;14.39;23.16;100347.66;5062450;28;20036;-64
2021/04/30 08:51:31;;;;;;;1.65;0.98;;;;;;;14.16;23.68;100350.81;5065967;28;20100;-64
2021/04/30 08:53:59;;;;;;;2.10;1.10;;;;;;;14.27;23.93;100347.94;5067335;28;20035;-64
2021/04/30 08:56:25;;;;;;;2.85;1.30;;;;;;;14.62;23.81;100349.66;5067044;28;20045;-63
2021/04/30 08:58:50;;;;;;;3.80;1.10;;;;;;;15.17;24.03;100343.00;5065738;28;20040;-63
2021/04/30 09:01:16;;;;;;;4.40;1.50;;;;;;;15.96;22.87;100333.66;5067270;28;20021;-64
2021/04/30 09:03:41;;;;;;;3.55;1.48;;;;;;;16.43;22.63;100347.88;5066695;28;20051;-64
2021/04/30 09:06:07;;;;;;;3.45;1.05;;;;;;;16.63;21.46;100343.72;5066892;28;20025;-64
2021/04/30 09:08:46;;;;;;;1.85;0.93;;;;;;;16.51;20.82;100339.75;5067225;28;20249;-64
2021/04/30 09:11:33;;;;;;;3.22;1.17;;;;;;;16.42;21.60;100354.03;5065538;28;20428;-64
2021/04/30 09:14:19;;;;;;;1.83;1.00;;;;;;;16.43;21.51;100342.63;5066826;28;20021;-64
2021/04/30 09:16:59;;;;;;;1.77;0.90;;;;;;;16.58;21.49;100338.66;5066671;28;20044;-65
2021/04/30 09:19:37;;;;;;;4.15;1.08;;;;;;;16.60;21.67;100337.69;5066514;28;20021;-63
2021/04/30 09:22:05;;;;;;;4.65;1.00;;;;;;;17.12;21.47;100335.03;5066920;28;20013;-64
2021/04/30 09:24:31;;;;;;;1.88;1.08;;;;;;;17.20;20.58;100333.81;5066741;28;20040;-64
2021/04/30 09:26:57;;;;;;;2.17;0.90;;;;;;;17.32;21.25;100348.25;5066914;28;20044;-63
2021/04/30 09:29:23;;;;;;;5.70;1.48;;;;;;;18.07;20.95;100345.34;5066564;28;20504;-63
2021/04/30 09:31:49;;;;;;;2.30;0.73;;;;;;;18.88;19.73;100348.16;5066681;28;20020;-62
2021/04/30 09:34:18;;;;;;;3.83;0.93;;;;;;;18.98;18.49;100343.34;5066059;28;20049;-64
2021/04/30 09:37:02;;;;;;;4.07;1.48;;;;;;;18.08;19.45;100336.56;5066359;28;20037;-63
2021/04/30 09:39:29;;;;;;;1.13;0.88;;;;;;;17.90;19.99;100342.56;5066688;28;20025;-64
2021/04/30 09:42:15;;;;;;;2.92;1.08;;;;;;;18.00;20.05;100332.53;5066372;28;20033;-64
2021/04/30 09:44:43;;;;;;;2.28;1.10;;;;;;;18.36;19.46;100329.31;5066285;28;20041;-64
2021/04/30 09:47:25;;;;;;;3.75;1.10;;;;;;;18.29;19.53;100343.66;5066124;28;20139;-64
2021/04/30 09:49:52;;;;;;;;;;;;;;;18.62;20.22;100339.63;5066431;28;20079;-64
2021/04/30 09:52:19;;;;;;;1.42;0.80;;;;;;;19.17;19.19;100343.41;5064998;28;19909;-63
2021/04/30 09:54:45;;;;;;;3.33;0.90;;;;;;;19.08;18.64;100339.38;5064547;28;20317;-63
2021/04/30 09:57:23;;;;;;;2.13;1.52;;;;;;;18.39;18.68;100334.44;5065695;28;20063;-64
2021/04/30 10:00:02;;;;;;;4.68;1.20;;;;;;;17.91;19.06;100344.25;5066460;28;20147;-64
2021/04/30 10:02:30;;;;;;;1.85;0.90;;;;;;;17.99;18.97;100333.47;5066027;28;20025;-64
2021/04/30 10:05:22;;;;;;;2.92;1.30;;;;;;;18.30;18.84;100340.09;5065931;28;20024;-64
2021/04/30 10:07:48;;;;;;;2.70;0.90;;;;;;;18.25;18.63;100336.81;5066393;28;20021;-63
2021/04/30 10:10:15;;;;;;;1.50;0.98;;;;;;;18.24;18.67;100345.63;5066065;28;20080;-63
2021/04/30 10:12:45;;;;;;;5.35;1.45;;;;;;;18.27;18.74;100345.50;5065958;28;20035;-64
2021/04/30 10:15:14;;;;;;;1.77;0.95;;;;;;;17.68;18.32;100344.25;5065833;28;20024;-63
2021/04/30 10:17:39;;;;;;;2.45;0.90;;;;;;;16.51;19.50;100340.63;5065602;28;20076;-64
2021/04/30 10:20:07;;;;;;;1.60;0.95;;;;;;;16.28;20.07;100344.88;5065885;28;20048;-63
2021/04/30 10:22:35;;;;;;;1.73;1.00;;;;;;;16.69;19.40;100346.97;5065650;28;20035;-63
2021/04/30 10:25:02;;;;;;;1.27;0.82;;;;;;;16.43;19.63;100347.88;5065754;28;20025;-63
2021/04/30 10:27:33;;;;;;;1.67;1.05;;;;;;;16.83;19.73;100332.53;5065529;28;20029;-63
2021/04/30 10:30:13;;;;;;;1.50;1.00;;;;;;;17.47;19.46;100330.22;5065807;28;20025;-63
2021/04/30 10:32:49;;;;;;;2.97;0.60;;;;;;;17.96;17.88;100337.06;5065188;28;20028;-69
2021/04/30 10:35:22;;;;;;;1.70;1.00;;;;;;;17.24;17.56;100331.94;5065227;28;20036;-66
2021/04/30 10:37:49;;;;;;;1.20;0.63;;;;;;;16.82;17.54;100342.16;5065565;28;20025;-66
2021/04/30 10:40:16;;;;;;;1.65;0.80;;;;;;;16.90;17.76;100330.56;5065381;28;20025;-66
2021/04/30 10:42:44;;;;;;;2.45;1.00;;;;;;;17.04;18.12;100328.28;5065397;28;20538;-66
2021/04/30 10:45:16;;;;;;;1.40;0.80;;;;;;;17.76;18.11;100332.63;5065287;28;20031;-66
2021/04/30 10:48:03;;;;;;;1.98;1.25;;;;;;;18.55;17.51;100332.03;5065050;28;20032;-64
2021/04/30 10:50:29;;;;;;;0.77;0.60;;;;;;;19.12;16.10;100332.25;5065234;28;20029;-65
2021/04/30 10:53:27;;;;;;;1.13;0.80;;;;;;;19.37;15.79;100334.59;5065101;28;20429;-66
2021/04/30 10:55:54;;;;;;;1.13;0.75;;;;;;;19.31;15.71;100325.19;5064534;28;20041;-65
2021/04/30 10:58:39;;;;;;;2.40;0.80;;;;;;;19.42;15.78;100326.47;5064235;28;20120;-64
2021/04/30 11:01:27;;;;;;;1.75;0.93;;;;;;;19.92;15.94;100327.59;5064655;28;20499;-64
2021/04/30 11:04:22;;;;;;;1.10;0.65;;;;;;;19.47;15.89;100315.72;5064723;28;20154;-66
2021/04/30 11:06:51;;;;;;;2.58;0.75;;;;;;;19.11;16.41;100330.50;5063935;28;20087;-65
2021/04/30 11:09:38;;;;;;;1.42;0.73;;;;;;;18.28;16.01;100324.41;5064760;28;20055;-65
2021/04/30 11:12:23;;;;;;;1.70;1.00;;;;;;;17.61;17.37;100331.44;5064681;28;20036;-65
2021/04/30 11:15:04;;;;;;;2.00;1.52;;;;;;;16.80;18.65;100311.66;5064263;28;20025;-64
2021/04/30 11:17:58;;;;;;;1.92;1.02;;;;;;;15.84;19.55;100334.91;5063255;28;20025;-65
2021/04/30 11:20:26;;;;;;;2.08;1.20;;;;;;;14.89;20.80;100324.63;5064653;28;20024;-65
2021/04/30 11:23:36;;;;;;;2.58;1.20;;;;;;;14.31;21.48;100315.66;5064606;28;20029;-65
2021/04/30 11:26:07;;;;;;;2.30;1.27;;;;;;;13.93;21.97;100319.16;5061684;28;20040;-64
2021/04/30 11:28:35;;;;;;;2.97;1.05;;;;;;;13.77;22.75;100323.03;5061947;28;20029;-65
2021/04/30 11:31:21;;;;;;;2.38;1.02;;;;;;;13.47;23.05;100326.25;5061576;28;20036;-65